Time;durP1;ratioP1;P1;durP2;ratioP2;P2;SDS_P1;SDS_P2;PMS_P1;PMS_P2;Temp;Humidity;BMP_temperature;BMP_pressure;BME280_temperature;BME280_humidity;BME280_pressure;Samples;Min_cycle;Max_cycle;Signal;HPM_P1;HPM_P2
2023/06/19 00:00:12;;;;;;;11.43;9.90;;;26.50;57.40;;;;;;6265294;22;20166;-66
2023/06/19 00:02:41;;;;;;;10.63;9.70;;;26.50;57.50;;;;;;6265374;22;20419;-66
2023/06/19 00:05:08;;;;;;;12.30;10.33;;;26.40;57.60;;;;;;6265422;22;20510;-67
2023/06/19 00:07:37;;;;;;;11.00;10.00;;;26.30;57.70;;;;;;6264064;22;20974;-66
2023/06/19 00:10:04;;;;;;;11.40;10.30;;;26.30;58.00;;;;;;6265650;22;20548;-66
2023/06/19 00:12:29;;;;;;;11.40;10.20;;;26.30;58.00;;;;;;6263126;22;20751;-65
2023/06/19 00:14:55;;;;;;;11.93;10.90;;;26.10;58.20;;;;;;6266271;22;20380;-65
2023/06/19 00:17:20;;;;;;;10.20;9.07;;;26.10;58.40;;;;;;6264049;22;20578;-67
2023/06/19 00:19:48;;;;;;;11.13;9.97;;;26.00;59.20;;;;;;6265925;22;20165;-66
2023/06/19 00:22:15;;;;;;;9.60;8.73;;;25.80;59.00;;;;;;6265480;22;20250;-66
2023/06/19 00:24:40;;;;;;;9.67;8.57;;;25.70;59.20;;;;;;6265475;22;20400;-66
2023/06/19 00:27:06;;;;;;;10.17;9.27;;;25.70;59.60;;;;;;6266750;22;20377;-65
2023/06/19 00:29:32;;;;;;;13.20;9.03;;;25.60;59.90;;;;;;6264001;22;20485;-67
2023/06/19 00:32:01;;;;;;;8.90;8.10;;;25.50;60.20;;;;;;6266435;22;20402;-65
2023/06/19 00:34:29;;;;;;;8.80;8.10;;;25.50;60.40;;;;;;6265064;22;20408;-65
2023/06/19 00:36:56;;;;;;;17.83;8.00;;;25.50;60.30;;;;;;6265657;22;20463;-65
2023/06/19 00:39:25;;;;;;;13.20;9.60;;;25.40;60.40;;;;;;6264684;22;20385;-66
2023/06/19 00:41:55;;;;;;;8.23;7.50;;;25.20;61.20;;;;;;6266122;22;20400;-65
2023/06/19 00:44:21;;;;;;;7.23;6.63;;;25.20;62.00;;;;;;6264933;22;20381;-65
2023/06/19 00:46:47;;;;;;;7.53;6.77;;;25.00;62.50;;;;;;6265610;22;20385;-66
2023/06/19 00:49:14;;;;;;;11.77;7.40;;;25.00;62.90;;;;;;6266429;22;20755;-66
2023/06/19 00:51:40;;;;;;;12.13;7.23;;;25.00;63.10;;;;;;6266002;22;20151;-66
2023/06/19 00:54:06;;;;;;;7.97;6.73;;;24.90;63.50;;;;;;6265207;22;20492;-66
2023/06/19 00:56:34;;;;;;;6.77;6.27;;;24.90;63.70;;;;;;6236574;22;20476;-66
2023/06/19 00:59:00;;;;;;;7.23;6.33;;;24.90;63.90;;;;;;6265825;22;20764;-65
2023/06/19 01:01:27;;;;;;;6.80;6.07;;;24.90;64.30;;;;;;6262850;22;20397;-66
2023/06/19 01:03:52;;;;;;;6.13;5.40;;;24.80;64.40;;;;;;6238107;22;20221;-66
2023/06/19 01:06:23;;;;;;;7.80;5.33;;;24.70;65.00;;;;;;6265086;22;20381;-65
2023/06/19 01:09:02;;;;;;;4.70;4.30;;;24.70;66.10;;;;;;6265157;22;20180;-66
2023/06/19 01:11:33;;;;;;;5.70;5.10;;;24.60;65.90;;;;;;6264701;22;20354;-65
2023/06/19 01:14:05;;;;;;;5.63;5.13;;;24.60;67.00;;;;;;6265633;22;20409;-65
2023/06/19 01:16:32;;;;;;;5.70;5.10;;;24.70;67.70;;;;;;6265040;22;20389;-66
2023/06/19 01:18:58;;;;;;;6.80;5.30;;;24.50;68.10;;;;;;6265045;22;20726;-66
2023/06/19 01:21:23;;;;;;;5.07;4.60;;;24.50;69.50;;;;;;6265447;22;20452;-66
2023/06/19 01:23:49;;;;;;;7.73;4.60;;;24.50;70.10;;;;;;6264482;22;20408;-65
2023/06/19 01:26:17;;;;;;;7.70;5.07;;;24.50;71.30;;;;;;6265824;22;20158;-66
2023/06/19 01:28:44;;;;;;;6.77;4.57;;;24.40;72.90;;;;;;6266415;22;20308;-66
2023/06/19 01:31:25;;;;;;;4.73;4.33;;;24.10;75.30;;;;;;6267491;22;20375;-65
2023/06/19 01:33:52;;;;;;;4.80;4.30;;;24.00;77.20;;;;;;6266726;22;20409;-64
2023/06/19 01:36:19;;;;;;;5.27;4.77;;;24.00;78.50;;;;;;6267666;22;20388;-66
2023/06/19 01:38:47;;;;;;;5.90;5.00;;;23.80;81.60;;;;;;6267438;22;20393;-66
2023/06/19 01:41:15;;;;;;;7.43;4.30;;;23.70;85.10;;;;;;6267321;22;20459;-67
2023/06/19 01:43:40;;;;;;;5.33;4.80;;;23.60;89.80;;;;;;6266399;22;20401;-65
2023/06/19 01:46:06;;;;;;;6.50;5.10;;;23.60;91.80;;;;;;6266256;22;20380;-65
2023/06/19 01:48:32;;;;;;;5.43;4.90;;;23.20;94.30;;;;;;6264050;22;20251;-65
2023/06/19 01:50:57;;;;;;;6.33;4.40;;;23.10;96.80;;;;;;6267156;22;20162;-65
2023/06/19 01:53:23;;;;;;;5.00;4.50;;;23.10;99.00;;;;;;6266045;22;20201;-65
2023/06/19 01:55:49;;;;;;;5.93;5.20;;;23.10;99.90;;;;;;6266059;22;20230;-65
2023/06/19 01:58:14;;;;;;;5.17;4.67;;;23.30;99.90;;;;;;6266950;22;20272;-65
2023/06/19 02:00:40;;;;;;;5.33;4.30;;;23.30;99.90;;;;;;6264351;22;20772;-65
2023/06/19 02:03:05;;;;;;;11.60;4.97;;;23.20;99.90;;;;;;6267932;22;20200;-65
2023/06/19 02:05:31;;;;;;;4.57;4.10;;;23.10;99.90;;;;;;6265753;22;20222;-66
2023/06/19 02:07:57;;;;;;;5.47;4.93;;;22.90;99.90;;;;;;6267108;22;20179;-66
2023/06/19 02:10:23;;;;;;;5.00;4.47;;;22.90;99.90;;;;;;6265778;22;20422;-66
2023/06/19 02:12:48;;;;;;;5.63;4.93;;;22.70;99.90;;;;;;6265659;22;20456;-66
2023/06/19 02:15:14;;;;;;;6.17;4.60;;;22.70;99.90;;;;;;6267922;22;20465;-66
2023/06/19 02:17:42;;;;;;;4.93;4.43;;;22.70;99.90;;;;;;6264611;22;20595;-67
2023/06/19 02:20:09;;;;;;;4.93;4.43;;;22.70;99.90;;;;;;6264847;22;20147;-66
2023/06/19 02:22:35;;;;;;;4.70;4.20;;;22.70;99.90;;;;;;6266951;22;20389;-66
2023/06/19 02:25:00;;;;;;;5.80;4.37;;;22.60;99.90;;;;;;6268730;22;20590;-66
2023/06/19 02:27:26;;;;;;;4.70;4.20;;;22.70;99.90;;;;;;6265551;22;20206;-66
2023/06/19 02:29:51;;;;;;;4.67;4.00;;;22.60;99.90;;;;;;6267531;22;20158;-66
2023/06/19 02:32:17;;;;;;;4.70;4.13;;;22.70;99.90;;;;;;6240800;22;20182;-66
2023/06/19 02:34:42;;;;;;;4.70;3.80;;;22.80;99.90;;;;;;6266822;22;20175;-66
2023/06/19 02:37:08;;;;;;;4.73;4.10;;;22.80;99.90;;;;;;6267334;22;20153;-67
2023/06/19 02:39:33;;;;;;;5.03;4.53;;;22.80;99.90;;;;;;6266154;22;20170;-67
2023/06/19 02:41:59;;;;;;;4.53;4.07;;;22.80;99.90;;;;;;6265280;22;20153;-67
2023/06/19 02:44:25;;;;;;;4.10;3.70;;;22.90;99.90;;;;;;6267490;22;20202;-66
2023/06/19 02:46:50;;;;;;;9.10;4.63;;;22.90;99.90;;;;;;6266936;22;20430;-67
2023/06/19 02:49:16;;;;;;;4.90;4.40;;;23.00;99.90;;;;;;6266791;22;20175;-67
2023/06/19 02:51:42;;;;;;;4.40;4.00;;;22.90;99.90;;;;;;6265233;22;20181;-67
2023/06/19 02:54:07;;;;;;;5.70;4.63;;;23.00;99.90;;;;;;6266444;22;20174;-67
2023/06/19 02:56:33;;;;;;;5.43;4.37;;;23.00;99.90;;;;;;6265631;22;20174;-67
2023/06/19 02:58:58;;;;;;;4.53;4.13;;;23.00;99.90;;;;;;6267324;22;20505;-67
2023/06/19 03:01:24;;;;;;;5.63;5.03;;;23.00;99.90;;;;;;6264613;22;20169;-67
2023/06/19 03:03:52;;;;;;;8.50;4.20;;;22.90;99.90;;;;;;6266258;22;20154;-67
2023/06/19 03:06:18;;;;;;;5.00;4.50;;;22.90;99.90;;;;;;6268032;22;20151;-67
2023/06/19 03:08:43;;;;;;;5.40;4.90;;;22.90;99.90;;;;;;6265968;22;20415;-66
2023/06/19 03:11:10;;;;;;;4.70;4.30;;;23.00;99.90;;;;;;6264175;22;20200;-66
2023/06/19 03:13:48;;;;;;;5.50;5.00;;;22.80;99.90;;;;;;6264352;22;20413;-66
2023/06/19 03:16:17;;;;;;;5.70;5.10;;;22.80;99.90;;;;;;6265722;22;20806;-67
2023/06/19 03:18:46;;;;;;;4.90;4.50;;;22.70;99.90;;;;;;6262595;22;20385;-66
2023/06/19 03:21:15;;;;;;;5.37;4.60;;;22.60;99.90;;;;;;6267285;22;20426;-66
2023/06/19 03:23:41;;;;;;;5.60;4.50;;;22.70;99.90;;;;;;6265429;22;20380;-67
2023/06/19 03:26:07;;;;;;;4.63;4.23;;;22.50;99.90;;;;;;6266537;22;20381;-67
2023/06/19 03:28:33;;;;;;;5.23;4.73;;;22.50;99.90;;;;;;6265049;22;20172;-66
2023/06/19 03:31:00;;;;;;;5.33;4.83;;;22.40;99.90;;;;;;6266165;22;20900;-66
2023/06/19 03:33:26;;;;;;;5.43;4.90;;;22.30;99.90;;;;;;6265694;22;20174;-67
2023/06/19 03:35:52;;;;;;;6.60;5.30;;;22.30;99.90;;;;;;6266232;22;20915;-66
2023/06/19 03:38:17;;;;;;;4.87;4.43;;;22.30;99.90;;;;;;6265580;22;20760;-66
2023/06/19 03:40:43;;;;;;;5.37;4.87;;;22.40;99.90;;;;;;6265149;22;20150;-67
2023/06/19 03:43:08;;;;;;;5.67;5.17;;;22.50;99.90;;;;;;6266142;22;20180;-67
2023/06/19 03:45:34;;;;;;;8.00;5.03;;;22.30;99.90;;;;;;6264806;22;20151;-66
2023/06/19 03:48:00;;;;;;;4.83;4.43;;;22.20;99.90;;;;;;6239219;22;20184;-66
2023/06/19 03:50:25;;;;;;;5.17;4.67;;;22.20;99.90;;;;;;6264767;22;20150;-66
2023/06/19 03:52:51;;;;;;;5.90;5.30;;;22.20;99.90;;;;;;6265792;22;20207;-66
2023/06/19 03:55:17;;;;;;;5.30;4.80;;;22.30;99.90;;;;;;6264048;22;20169;-65
2023/06/19 03:57:42;;;;;;;5.97;5.37;;;22.30;99.90;;;;;;6263143;22;20264;-65
2023/06/19 04:00:10;;;;;;;5.80;5.20;;;22.30;99.90;;;;;;6264664;22;20891;-65
2023/06/19 04:02:36;;;;;;;5.33;4.83;;;22.40;99.90;;;;;;6264349;22;20147;-66
2023/06/19 04:05:02;;;;;;;5.80;5.27;;;22.50;99.90;;;;;;6266087;22;20462;-66
2023/06/19 04:07:28;;;;;;;5.77;5.07;;;22.50;99.90;;;;;;6262417;22;20154;-66
2023/06/19 04:09:54;;;;;;;5.30;4.80;;;22.40;99.90;;;;;;6264084;22;20154;-66
2023/06/19 04:12:20;;;;;;;9.00;5.13;;;22.50;99.90;;;;;;6263754;22;20181;-66
2023/06/19 04:14:45;;;;;;;5.50;5.00;;;22.70;99.90;;;;;;6263870;22;20441;-66
2023/06/19 04:17:11;;;;;;;5.20;4.57;;;22.70;99.90;;;;;;6260714;22;20167;-66
2023/06/19 04:19:37;;;;;;;5.30;4.80;;;22.70;99.90;;;;;;6263653;22;20567;-65
2023/06/19 04:22:02;;;;;;;7.23;5.57;;;22.60;99.90;;;;;;6261971;22;20374;-66
2023/06/19 04:24:28;;;;;;;6.67;5.10;;;22.60;99.90;;;;;;6261406;22;20201;-65
2023/06/19 04:26:53;;;;;;;6.23;5.00;;;22.70;99.90;;;;;;6260511;22;20517;-66
2023/06/19 04:29:19;;;;;;;6.10;5.10;;;22.50;99.90;;;;;;6264906;22;20212;-65
2023/06/19 04:31:46;;;;;;;5.37;4.90;;;22.40;99.90;;;;;;6263025;22;20908;-65
2023/06/19 04:34:14;;;;;;;5.57;5.07;;;22.40;99.90;;;;;;6262349;22;20174;-65
2023/06/19 04:36:40;;;;;;;8.40;5.37;;;22.50;99.90;;;;;;6264397;22;20719;-66
2023/06/19 04:39:06;;;;;;;5.70;5.20;;;22.40;99.90;;;;;;6264988;22;20477;-66
2023/06/19 04:41:32;;;;;;;5.30;4.80;;;22.50;99.90;;;;;;6265115;22;20397;-66
2023/06/19 04:43:57;;;;;;;6.53;5.37;;;22.50;99.90;;;;;;6264827;22;20381;-66
2023/06/19 04:46:23;;;;;;;5.87;4.83;;;22.40;99.90;;;;;;6264362;22;20232;-66
2023/06/19 04:48:50;;;;;;;5.13;4.60;;;22.50;99.90;;;;;;6264644;22;20216;-66
2023/06/19 04:51:20;;;;;;;5.73;5.17;;;22.40;99.90;;;;;;6265968;22;20157;-66
2023/06/19 04:53:46;;;;;;;6.10;5.50;;;22.40;99.90;;;;;;6263800;22;20444;-66
2023/06/19 04:56:12;;;;;;;5.47;4.97;;;22.30;99.90;;;;;;6264320;22;20366;-66
2023/06/19 04:58:45;;;;;;;5.40;4.90;;;22.40;99.90;;;;;;6263305;22;20701;-66
2023/06/19 05:01:14;;;;;;;6.90;5.50;;;22.30;99.90;;;;;;6263668;22;20239;-65
2023/06/19 05:03:40;;;;;;;5.70;5.20;;;22.30;99.90;;;;;;6262514;22;20380;-66
2023/06/19 05:06:06;;;;;;;5.70;5.17;;;22.40;99.90;;;;;;6265823;22;20377;-66
2023/06/19 05:08:31;;;;;;;6.70;5.50;;;22.40;99.90;;;;;;6266120;22;20401;-66
2023/06/19 05:10:57;;;;;;;6.00;5.50;;;22.50;99.90;;;;;;6265211;22;20299;-66
2023/06/19 05:13:23;;;;;;;6.00;5.40;;;22.50;99.90;;;;;;6266913;22;20182;-66
2023/06/19 05:15:50;;;;;;;5.73;5.23;;;22.40;99.90;;;;;;6267388;22;20384;-66
2023/06/19 05:18:16;;;;;;;6.30;5.47;;;22.30;99.90;;;;;;6265148;22;20428;-66
2023/06/19 05:20:42;;;;;;;7.47;6.07;;;22.40;99.90;;;;;;6267794;22;20372;-66
2023/06/19 05:23:07;;;;;;;5.67;5.10;;;22.50;99.90;;;;;;6268316;22;20511;-66
2023/06/19 05:25:33;;;;;;;8.90;5.50;;;22.40;99.90;;;;;;6239842;22;20159;-66
2023/06/19 05:27:58;;;;;;;6.63;5.53;;;22.40;99.90;;;;;;6267539;22;20240;-66
2023/06/19 05:30:24;;;;;;;5.67;5.17;;;22.50;99.90;;;;;;6269282;22;20189;-66
2023/06/19 05:32:49;;;;;;;5.70;5.03;;;22.50;99.90;;;;;;6267224;22;20189;-66
2023/06/19 05:35:15;;;;;;;8.27;7.00;;;22.50;99.90;;;;;;6267856;22;20147;-66
2023/06/19 05:37:43;;;;;;;6.47;5.77;;;22.60;99.90;;;;;;6267191;22;20603;-67
2023/06/19 05:40:09;;;;;;;6.13;5.53;;;22.60;99.90;;;;;;6267658;22;20147;-66
2023/06/19 05:42:35;;;;;;;8.80;8.00;;;22.60;99.90;;;;;;6267575;22;20393;-66
2023/06/19 05:45:02;;;;;;;8.07;5.87;;;22.60;99.90;;;;;;6266813;22;20797;-66
2023/06/19 05:47:29;;;;;;;6.50;5.90;;;22.70;99.90;;;;;;6239841;22;20924;-66
2023/06/19 05:49:54;;;;;;;5.90;5.37;;;22.70;99.90;;;;;;6266476;22;20373;-66
2023/06/19 05:52:21;;;;;;;6.00;5.40;;;22.70;99.90;;;;;;6267173;22;20377;-66
2023/06/19 05:54:47;;;;;;;5.63;5.13;;;22.80;99.90;;;;;;6265838;22;20192;-66
2023/06/19 05:57:15;;;;;;;6.77;5.30;;;22.80;99.90;;;;;;6266019;22;20401;-67
2023/06/19 05:59:41;;;;;;;7.63;5.80;;;22.90;99.90;;;;;;6266285;22;20413;-67
2023/06/19 06:02:07;;;;;;;7.37;6.10;;;22.80;99.90;;;;;;6265695;22;20484;-66
2023/06/19 06:04:34;;;;;;;6.10;5.60;;;22.80;99.90;;;;;;6265699;22;20369;-66
2023/06/19 06:06:59;;;;;;;6.73;5.43;;;23.00;99.90;;;;;;6265509;22;20456;-66
2023/06/19 06:09:25;;;;;;;6.90;6.20;;;23.10;99.90;;;;;;6266540;22;20478;-66
2023/06/19 06:11:51;;;;;;;6.67;6.00;;;23.10;99.90;;;;;;6264536;22;20296;-66
2023/06/19 06:14:16;;;;;;;8.70;7.20;;;23.10;99.90;;;;;;6265048;22;20238;-66
2023/06/19 06:16:42;;;;;;;5.90;5.40;;;23.20;99.90;;;;;;6235169;22;20778;-66
2023/06/19 06:19:07;;;;;;;6.30;5.30;;;23.30;99.90;;;;;;6261750;22;20610;-66
2023/06/19 06:21:34;;;;;;;6.17;5.50;;;23.40;99.90;;;;;;6263330;22;20147;-66
2023/06/19 06:24:00;;;;;;;5.90;5.17;;;23.40;99.90;;;;;;6261401;22;20186;-65
2023/06/19 06:26:27;;;;;;;6.40;5.80;;;23.50;99.90;;;;;;6264518;22;20373;-66
2023/06/19 06:28:53;;;;;;;6.20;5.33;;;23.40;99.90;;;;;;6263491;22;20805;-66
2023/06/19 06:31:19;;;;;;;5.70;5.20;;;23.50;99.90;;;;;;6235790;22;20426;-65
2023/06/19 06:33:44;;;;;;;5.47;4.97;;;23.50;99.90;;;;;;6260931;22;20659;-66
2023/06/19 06:36:10;;;;;;;5.20;4.70;;;23.60;99.90;;;;;;6265243;22;20845;-66
2023/06/19 06:38:36;;;;;;;7.97;4.90;;;23.80;99.90;;;;;;6263607;22;20182;-66
2023/06/19 06:41:02;;;;;;;5.67;4.73;;;23.90;99.90;;;;;;6234907;22;20170;-66
2023/06/19 06:43:27;;;;;;;5.73;5.20;;;23.90;99.90;;;;;;6263701;22;21012;-66
2023/06/19 06:45:53;;;;;;;6.53;5.20;;;23.90;99.90;;;;;;6261712;22;20558;-66
2023/06/19 06:48:19;;;;;;;5.50;5.00;;;24.00;99.90;;;;;;6263704;22;20197;-66
2023/06/19 06:50:44;;;;;;;6.13;4.60;;;24.10;99.90;;;;;;6264213;22;20154;-66
2023/06/19 06:53:10;;;;;;;7.13;6.43;;;24.00;99.90;;;;;;6261411;22;20186;-66
2023/06/19 06:55:35;;;;;;;5.30;4.80;;;24.10;99.90;;;;;;6263603;22;20234;-67
2023/06/19 06:58:01;;;;;;;6.60;4.40;;;24.20;99.90;;;;;;6262709;22;20893;-66
2023/06/19 07:00:27;;;;;;;5.40;4.27;;;24.30;99.90;;;;;;6262938;22;20158;-66
2023/06/19 07:02:53;;;;;;;6.40;5.40;;;24.30;99.90;;;;;;6261149;22;20146;-66
2023/06/19 07:05:18;;;;;;;4.70;4.30;;;24.40;99.90;;;;;;6263655;22;20373;-66
2023/06/19 07:07:44;;;;;;;4.90;4.40;;;24.40;99.90;;;;;;6261398;22;20227;-66
2023/06/19 07:10:10;;;;;;;4.80;4.40;;;24.60;99.90;;;;;;6262557;22;20680;-66
2023/06/19 07:12:43;;;;;;;4.17;3.77;;;24.70;99.90;;;;;;6260864;22;20249;-66
2023/06/19 07:15:09;;;;;;;4.93;4.43;;;24.60;99.90;;;;;;6235213;22;20220;-66
2023/06/19 07:17:34;;;;;;;4.40;4.00;;;24.70;99.90;;;;;;6262494;22;20868;-65
2023/06/19 07:20:00;;;;;;;4.53;4.10;;;24.70;99.90;;;;;;6263933;22;20151;-66
2023/06/19 07:22:25;;;;;;;4.60;4.20;;;24.80;99.90;;;;;;6261900;22;20184;-66
2023/06/19 07:24:51;;;;;;;6.30;4.30;;;24.80;99.90;;;;;;6261194;22;20154;-66
2023/06/19 07:27:17;;;;;;;4.60;4.20;;;24.70;99.90;;;;;;6263181;22;20159;-67
2023/06/19 07:29:44;;;;;;;4.73;4.23;;;24.70;99.90;;;;;;6260257;22;20239;-67
2023/06/19 07:32:10;;;;;;;4.80;4.30;;;24.80;99.90;;;;;;6263187;22;20181;-67
2023/06/19 07:34:36;;;;;;;4.97;4.47;;;24.90;99.90;;;;;;6261006;22;20378;-67
2023/06/19 07:37:01;;;;;;;5.30;4.77;;;24.80;99.90;;;;;;6262216;22;20377;-67
2023/06/19 07:39:27;;;;;;;5.20;4.80;;;24.80;99.90;;;;;;6260348;22;20315;-66
2023/06/19 07:41:52;;;;;;;5.57;4.80;;;24.90;99.90;;;;;;6262632;22;20157;-66
2023/06/19 07:44:20;;;;;;;5.60;5.07;;;24.80;99.90;;;;;;6235427;22;20164;-66
2023/06/19 07:46:46;;;;;;;5.70;5.20;;;24.80;99.90;;;;;;6263087;22;20151;-66
2023/06/19 07:49:12;;;;;;;5.07;4.67;;;24.80;99.90;;;;;;6260723;22;20732;-66
2023/06/19 07:51:37;;;;;;;6.50;4.93;;;24.70;99.90;;;;;;6262425;22;20184;-66
2023/06/19 07:54:03;;;;;;;6.60;5.00;;;24.70;99.90;;;;;;6261909;22;20178;-66
2023/06/19 07:56:28;;;;;;;5.70;5.03;;;24.70;99.90;;;;;;6262571;22;20749;-66
2023/06/19 07:58:54;;;;;;;5.27;4.77;;;24.60;99.90;;;;;;6262060;22;20895;-66
2023/06/19 08:01:19;;;;;;;6.63;4.97;;;24.70;99.90;;;;;;6261772;22;20516;-66
2023/06/19 08:03:45;;;;;;;6.30;5.70;;;24.60;99.90;;;;;;6261309;22;20158;-66
2023/06/19 08:06:11;;;;;;;6.20;5.60;;;24.80;99.90;;;;;;6261650;22;20257;-66
2023/06/19 08:08:37;;;;;;;10.30;5.47;;;24.90;99.90;;;;;;6259989;22;20488;-66
2023/06/19 08:11:08;;;;;;;6.00;5.40;;;24.90;99.90;;;;;;6261463;22;20173;-66
2023/06/19 08:13:34;;;;;;;5.97;5.40;;;24.90;99.90;;;;;;6262214;22;20170;-66
2023/06/19 08:16:00;;;;;;;6.67;6.07;;;25.00;99.90;;;;;;6262241;22;20965;-65
2023/06/19 08:18:25;;;;;;;7.10;5.73;;;24.80;99.90;;;;;;6261800;22;20741;-67
2023/06/19 08:20:51;;;;;;;7.80;6.10;;;24.80;99.90;;;;;;6262933;22;20174;-66
2023/06/19 08:23:16;;;;;;;9.17;6.40;;;24.90;99.90;;;;;;6261614;22;20181;-66
2023/06/19 08:25:42;;;;;;;6.83;6.23;;;24.90;99.90;;;;;;6261975;22;20204;-66
2023/06/19 08:28:08;;;;;;;6.80;6.20;;;24.80;99.90;;;;;;6261451;22;20170;-67
2023/06/19 08:30:34;;;;;;;6.70;6.10;;;24.70;99.90;;;;;;6234553;22;20854;-66
2023/06/19 08:33:00;;;;;;;6.67;6.03;;;24.80;99.90;;;;;;6262764;22;20428;-67
2023/06/19 08:35:25;;;;;;;6.57;5.97;;;24.90;99.90;;;;;;6260393;22;20150;-67
2023/06/19 08:37:51;;;;;;;6.97;6.37;;;25.00;99.90;;;;;;6235128;22;20213;-67
2023/06/19 08:40:16;;;;;;;6.60;6.00;;;25.00;99.90;;;;;;6262659;22;20150;-67
2023/06/19 08:42:43;;;;;;;7.00;5.83;;;25.10;99.90;;;;;;6263002;22;20162;-67
2023/06/19 08:45:09;;;;;;;6.40;5.80;;;25.00;99.90;;;;;;6265215;22;20204;-67
2023/06/19 08:47:35;;;;;;;6.47;5.93;;;25.00;99.90;;;;;;6264567;22;20986;-67
2023/06/19 08:50:00;;;;;;;7.10;6.23;;;25.20;99.90;;;;;;6265129;22;20480;-67
2023/06/19 08:52:26;;;;;;;6.97;5.63;;;25.20;99.90;;;;;;6263113;22;20162;-67
2023/06/19 08:54:51;;;;;;;7.30;6.60;;;25.20;99.90;;;;;;6265168;22;20158;-65
2023/06/19 08:57:17;;;;;;;6.60;6.00;;;25.20;99.90;;;;;;6235457;22;20161;-65
2023/06/19 08:59:50;;;;;;;6.53;5.90;;;25.20;99.90;;;;;;6264691;22;20216;-66
2023/06/19 09:02:16;;;;;;;6.87;5.57;;;25.30;99.90;;;;;;6263135;22;20228;-66
2023/06/19 09:04:42;;;;;;;7.43;6.73;;;25.40;99.90;;;;;;6264238;22;20384;-66
2023/06/19 09:07:08;;;;;;;6.50;5.90;;;25.40;99.90;;;;;;6261690;22;20373;-67
2023/06/19 09:09:34;;;;;;;6.00;5.40;;;25.40;99.90;;;;;;6263497;22;20162;-67
2023/06/19 09:12:10;;;;;;;6.60;6.00;;;25.30;99.90;;;;;;6261685;22;20577;-67
2023/06/19 09:14:37;;;;;;;7.10;6.27;;;25.30;99.90;;;;;;6263079;22;20692;-67
2023/06/19 09:17:04;;;;;;;6.63;6.03;;;25.40;99.90;;;;;;6265689;22;20967;-67
2023/06/19 09:19:30;;;;;;;8.60;6.47;;;25.40;99.90;;;;;;6236463;22;20543;-67
2023/06/19 09:22:03;;;;;;;7.10;6.50;;;25.40;99.90;;;;;;6263611;22;20370;-67
2023/06/19 09:24:40;;;;;;;7.73;6.40;;;25.40;99.90;;;;;;6262870;22;20384;-67
2023/06/19 09:27:13;;;;;;;8.00;6.93;;;25.50;99.90;;;;;;6263792;22;20370;-67
2023/06/19 09:29:43;;;;;;;7.30;6.60;;;25.60;99.90;;;;;;6264484;22;20397;-67
2023/06/19 09:32:23;;;;;;;7.60;6.80;;;25.50;99.90;;;;;;6263821;22;20760;-67
2023/06/19 09:34:50;;;;;;;6.10;5.47;;;25.70;99.90;;;;;;6236158;22;20484;-67
2023/06/19 09:37:22;;;;;;;7.63;6.93;;;25.70;99.90;;;;;;6263611;22;20389;-67
2023/06/19 09:39:52;;;;;;;6.90;6.30;;;26.00;99.90;;;;;;6263268;22;20447;-66
2023/06/19 09:42:24;;;;;;;7.77;7.10;;;26.00;99.90;;;;;;6263154;22;20368;-66
2023/06/19 09:44:55;;;;;;;7.40;6.70;;;26.00;99.90;;;;;;6265071;22;20358;-66
2023/06/19 09:47:25;;;;;;;6.73;6.10;;;26.00;99.90;;;;;;6264423;22;20536;-66
2023/06/19 09:49:55;;;;;;;7.03;6.43;;;26.20;99.90;;;;;;6263702;22;20703;-66
2023/06/19 09:52:23;;;;;;;6.47;5.87;;;26.20;99.90;;;;;;6263762;22;20945;-66
2023/06/19 09:54:53;;;;;;;9.83;6.30;;;26.40;99.90;;;;;;6264674;22;20380;-66
2023/06/19 09:57:19;;;;;;;7.27;6.67;;;26.40;99.90;;;;;;6262608;22;20686;-66
2023/06/19 09:59:49;;;;;;;6.43;5.83;;;26.70;99.90;;;;;;6263369;22;20408;-66
2023/06/19 10:02:16;;;;;;;6.80;6.10;;;26.80;99.90;;;;;;6260618;22;20237;-66
2023/06/19 10:04:44;;;;;;;7.57;6.40;;;26.80;99.90;;;;;;6264485;22;20373;-66
2023/06/19 10:07:18;;;;;;;8.47;7.70;;;26.70;99.90;;;;;;6262911;22;21033;-66
2023/06/19 10:10:06;;;;;;;9.80;6.27;;;26.90;99.90;;;;;;6262129;22;20928;-66
2023/06/19 10:12:37;;;;;;;6.63;6.03;;;26.90;99.90;;;;;;6262991;22;20416;-66
2023/06/19 10:15:15;;;;;;;6.67;6.07;;;27.00;99.90;;;;;;6235896;22;20899;-66
2023/06/19 10:17:51;;;;;;;11.10;8.80;;;27.00;99.90;;;;;;6262034;22;20369;-66
2023/06/19 10:20:31;;;;;;;7.20;6.50;;;26.90;99.90;;;;;;6263184;22;20828;-66
2023/06/19 10:22:58;;;;;;;9.00;6.40;;;27.00;99.90;;;;;;6262447;22;20415;-66
2023/06/19 10:25:27;;;;;;;7.20;6.50;;;27.10;99.90;;;;;;6263787;22;20382;-67
2023/06/19 10:27:54;;;;;;;6.33;5.83;;;27.10;99.90;;;;;;6263311;22;20481;-67
2023/06/19 10:30:20;;;;;;;7.93;6.80;;;27.00;99.90;;;;;;6263140;22;20382;-66
2023/06/19 10:32:47;;;;;;;8.70;6.30;;;26.90;99.90;;;;;;6261886;22;20439;-67
2023/06/19 10:35:13;;;;;;;7.33;6.43;;;26.90;99.90;;;;;;6263309;22;20646;-67
2023/06/19 10:37:39;;;;;;;6.60;6.00;;;27.10;99.90;;;;;;6262490;22;20373;-67
2023/06/19 10:40:10;;;;;;;6.57;5.97;;;27.20;99.90;;;;;;6234011;22;21082;-67
2023/06/19 10:42:44;;;;;;;7.07;6.40;;;27.40;99.90;;;;;;6262448;22;20436;-66
2023/06/19 10:45:12;;;;;;;6.20;5.70;;;27.40;99.90;;;;;;6262789;22;20450;-67
2023/06/19 10:47:40;;;;;;;7.80;7.10;;;27.50;99.90;;;;;;6264096;22;20378;-66
2023/06/19 10:50:15;;;;;;;7.27;6.57;;;27.60;99.90;;;;;;6235007;22;20420;-67
2023/06/19 10:52:42;;;;;;;6.80;6.20;;;27.60;99.90;;;;;;6262993;22;20451;-67
2023/06/19 10:55:08;;;;;;;6.90;6.30;;;27.50;99.90;;;;;;6262388;22;20423;-67
2023/06/19 10:57:34;;;;;;;7.27;6.67;;;27.60;99.90;;;;;;6261735;22;20983;-67
2023/06/19 11:00:00;;;;;;;7.17;6.50;;;27.60;99.90;;;;;;6262290;22;20380;-66
2023/06/19 11:02:25;;;;;;;7.30;6.50;;;27.70;99.90;;;;;;6235507;22;20184;-67
2023/06/19 11:04:57;;;;;;;6.30;5.80;;;27.90;99.90;;;;;;6262546;22;20587;-66
2023/06/19 11:07:22;;;;;;;6.40;5.80;;;28.10;99.90;;;;;;6263694;22;20509;-67
2023/06/19 11:09:51;;;;;;;7.20;6.60;;;28.20;99.90;;;;;;6263379;22;20431;-67
2023/06/19 11:12:21;;;;;;;6.67;6.03;;;28.20;99.60;;;;;;6262992;22;20310;-67
2023/06/19 11:14:48;;;;;;;6.20;5.70;;;28.40;99.40;;;;;;6262816;22;20404;-67
2023/06/19 11:17:14;;;;;;;7.20;6.50;;;28.30;99.30;;;;;;6261842;22;20687;-68
2023/06/19 11:19:41;;;;;;;7.60;6.47;;;28.40;99.30;;;;;;6261399;22;20473;-68
2023/06/19 11:22:07;;;;;;;6.40;5.90;;;28.60;98.70;;;;;;6263473;22;20146;-68
2023/06/19 11:24:33;;;;;;;6.87;6.27;;;28.80;96.40;;;;;;6261859;22;20822;-68
2023/06/19 11:26:59;;;;;;;6.50;6.00;;;28.80;95.50;;;;;;6262757;22;20229;-68
2023/06/19 11:29:28;;;;;;;7.00;6.40;;;29.00;95.60;;;;;;6261177;22;20224;-68
2023/06/19 11:32:10;;;;;;;6.57;6.07;;;29.00;95.00;;;;;;6261584;22;20389;-68
2023/06/19 11:34:36;;;;;;;5.77;5.23;;;29.00;94.20;;;;;;6262595;22;20408;-68
2023/06/19 11:37:16;;;;;;;5.90;5.40;;;29.00;94.40;;;;;;6262447;22;20378;-68
2023/06/19 11:39:44;;;;;;;8.57;6.17;;;29.20;93.80;;;;;;6261587;22;20898;-68
2023/06/19 11:42:10;;;;;;;6.30;5.70;;;29.10;93.00;;;;;;6262349;22;20388;-68
2023/06/19 11:44:35;;;;;;;6.23;5.70;;;29.10;92.20;;;;;;6262426;22;20373;-67
2023/06/19 11:47:03;;;;;;;6.33;5.73;;;29.00;93.10;;;;;;6262604;22;20500;-68
2023/06/19 11:49:35;;;;;;;6.40;5.80;;;29.00;92.80;;;;;;6261129;22;20170;-67
2023/06/19 11:52:01;;;;;;;7.50;6.23;;;28.80;92.30;;;;;;6260758;22;20369;-68
2023/06/19 11:54:26;;;;;;;5.60;5.10;;;28.90;92.00;;;;;;6261983;22;20425;-68
2023/06/19 11:56:52;;;;;;;6.47;5.43;;;29.10;91.50;;;;;;6262236;22;20222;-67
2023/06/19 11:59:18;;;;;;;6.80;6.10;;;29.50;91.40;;;;;;6259832;22;20194;-68
2023/06/19 12:01:43;;;;;;;5.97;5.40;;;29.90;90.80;;;;;;6261717;22;20166;-68
2023/06/19 12:04:09;;;;;;;6.20;5.70;;;30.30;89.90;;;;;;6261834;22;20162;-67
2023/06/19 12:06:35;;;;;;;6.10;5.60;;;31.00;88.20;;;;;;6262540;22;20643;-68
2023/06/19 12:09:01;;;;;;;7.50;6.83;;;32.10;85.90;;;;;;6261706;22;20283;-68
2023/06/19 12:11:26;;;;;;;6.57;6.03;;;33.20;81.70;;;;;;6261704;22;20369;-68
2023/06/19 12:13:57;;;;;;;8.40;4.93;;;34.10;78.60;;;;;;6262160;22;20698;-68
2023/06/19 12:16:23;;;;;;;5.70;5.20;;;34.70;72.90;;;;;;6261475;22;20191;-69
2023/06/19 12:18:48;;;;;;;6.50;5.83;;;34.90;70.00;;;;;;6262760;22;20432;-67
2023/06/19 12:21:14;;;;;;;6.70;5.97;;;34.70;68.40;;;;;;6262876;22;20169;-67
2023/06/19 12:23:39;;;;;;;6.27;5.60;;;34.60;67.70;;;;;;6260769;22;20151;-66
2023/06/19 12:26:05;;;;;;;5.90;5.40;;;34.40;66.60;;;;;;6261583;22;20279;-66
2023/06/19 12:28:30;;;;;;;6.10;5.60;;;34.40;66.80;;;;;;6262036;22;20468;-67
2023/06/19 12:30:56;;;;;;;5.40;4.90;;;34.40;66.10;;;;;;6262941;22;20237;-67
2023/06/19 12:33:22;;;;;;;6.17;5.67;;;34.00;65.30;;;;;;6233310;22;20674;-67
2023/06/19 12:35:48;;;;;;;6.50;6.00;;;33.30;66.60;;;;;;6261686;22;21027;-67
2023/06/19 12:38:13;;;;;;;6.03;5.53;;;33.00;67.70;;;;;;6261889;22;20406;-66
2023/06/19 12:40:39;;;;;;;6.60;6.10;;;33.00;68.30;;;;;;6260541;22;20153;-67
2023/06/19 12:43:06;;;;;;;6.10;5.60;;;32.90;68.60;;;;;;6263068;22;20154;-67